sensor_id;sensor_type;location;lat;lon;timestamp;P1;durP1;ratioP1;P2;durP2;ratioP2
7154;SDS011;3619;53.784;10.440;2023-04-03T00:02:05;5.20;;;5.00;;
7154;SDS011;3619;53.784;10.440;2023-04-03T00:04:31;5.13;;;4.93;;
7154;SDS011;3619;53.784;10.440;2023-04-03T00:06:58;3.97;;;3.87;;
7154;SDS011;3619;53.784;10.440;2023-04-03T00:09:26;4.50;;;4.30;;
7154;SDS011;3619;53.784;10.440;2023-04-03T00:11:54;5.17;;;4.97;;
7154;SDS011;3619;53.784;10.440;2023-04-03T00:14:21;4.40;;;4.27;;
7154;SDS011;3619;53.784;10.440;2023-04-03T00:16:49;5.37;;;5.17;;
7154;SDS011;3619;53.784;10.440;2023-04-03T00:19:16;4.83;;;4.63;;
7154;SDS011;3619;53.784;10.440;2023-04-03T00:21:44;5.07;;;4.87;;
7154;SDS011;3619;53.784;10.440;2023-04-03T00:24:11;4.10;;;4.00;;
7154;SDS011;3619;53.784;10.440;2023-04-03T00:26:38;4.83;;;4.63;;
7154;SDS011;3619;53.784;10.440;2023-04-03T00:29:06;4.80;;;4.60;;
7154;SDS011;3619;53.784;10.440;2023-04-03T00:31:33;5.43;;;5.23;;
7154;SDS011;3619;53.784;10.440;2023-04-03T00:34:04;5.53;;;5.33;;
7154;SDS011;3619;53.784;10.440;2023-04-03T00:36:30;5.70;;;5.50;;
7154;SDS011;3619;53.784;10.440;2023-04-03T00:38:57;4.87;;;4.67;;
7154;SDS011;3619;53.784;10.440;2023-04-03T00:41:24;3.83;;;3.73;;
7154;SDS011;3619;53.784;10.440;2023-04-03T00:43:51;4.17;;;4.07;;
7154;SDS011;3619;53.784;10.440;2023-04-03T00:46:18;4.60;;;4.40;;
7154;SDS011;3619;53.784;10.440;2023-04-03T00:48:46;4.13;;;4.03;;
7154;SDS011;3619;53.784;10.440;2023-04-03T00:51:16;5.00;;;4.80;;
7154;SDS011;3619;53.784;10.440;2023-04-03T00:53:47;4.83;;;4.63;;
7154;SDS011;3619;53.784;10.440;2023-04-03T00:56:18;5.17;;;4.97;;
7154;SDS011;3619;53.784;10.440;2023-04-03T00:58:49;6.33;;;6.13;;
7154;SDS011;3619;53.784;10.440;2023-04-03T01:01:20;5.60;;;5.40;;
7154;SDS011;3619;53.784;10.440;2023-04-03T01:03:50;6.47;;;6.27;;
7154;SDS011;3619;53.784;10.440;2023-04-03T01:06:19;6.07;;;5.87;;
7154;SDS011;3619;53.784;10.440;2023-04-03T01:08:51;7.77;;;7.47;;
7154;SDS011;3619;53.784;10.440;2023-04-03T01:11:20;6.33;;;6.13;;
7154;SDS011;3619;53.784;10.440;2023-04-03T01:13:47;7.07;;;6.80;;
7154;SDS011;3619;53.784;10.440;2023-04-03T01:16:14;6.53;;;6.33;;
7154;SDS011;3619;53.784;10.440;2023-04-03T01:18:41;7.20;;;6.90;;
7154;SDS011;3619;53.784;10.440;2023-04-03T01:24:20;6.53;;;6.33;;
7154;SDS011;3619;53.784;10.440;2023-04-03T01:26:54;7.37;;;7.07;;
7154;SDS011;3619;53.784;10.440;2023-04-03T01:29:21;7.40;;;7.10;;
7154;SDS011;3619;53.784;10.440;2023-04-03T01:31:50;8.07;;;7.77;;
7154;SDS011;3619;53.784;10.440;2023-04-03T01:34:17;8.03;;;7.73;;
7154;SDS011;3619;53.784;10.440;2023-04-03T01:36:45;8.90;;;8.60;;
7154;SDS011;3619;53.784;10.440;2023-04-03T01:39:12;8.50;;;8.20;;
7154;SDS011;3619;53.784;10.440;2023-04-03T01:41:39;8.53;;;8.23;;
7154;SDS011;3619;53.784;10.440;2023-04-03T01:44:05;7.90;;;7.60;;
7154;SDS011;3619;53.784;10.440;2023-04-03T01:46:32;7.90;;;7.60;;
7154;SDS011;3619;53.784;10.440;2023-04-03T01:49:01;9.17;;;8.87;;
7154;SDS011;3619;53.784;10.440;2023-04-03T01:51:28;6.73;;;6.53;;
7154;SDS011;3619;53.784;10.440;2023-04-03T01:53:55;8.57;;;8.27;;
7154;SDS011;3619;53.784;10.440;2023-04-03T01:56:22;7.93;;;7.63;;
7154;SDS011;3619;53.784;10.440;2023-04-03T01:58:49;7.93;;;7.63;;
7154;SDS011;3619;53.784;10.440;2023-04-03T02:01:16;8.07;;;7.77;;
7154;SDS011;3619;53.784;10.440;2023-04-03T02:03:43;9.80;;;9.40;;
7154;SDS011;3619;53.784;10.440;2023-04-03T02:06:11;7.47;;;7.17;;
7154;SDS011;3619;53.784;10.440;2023-04-03T02:08:38;9.03;;;8.73;;
7154;SDS011;3619;53.784;10.440;2023-04-03T02:11:05;7.93;;;7.63;;
7154;SDS011;3619;53.784;10.440;2023-04-03T02:13:32;8.47;;;8.17;;
7154;SDS011;3619;53.784;10.440;2023-04-03T02:15:59;9.20;;;8.90;;
7154;SDS011;3619;53.784;10.440;2023-04-03T02:18:33;7.33;;;7.03;;
7154;SDS011;3619;53.784;10.440;2023-04-03T02:21:00;9.00;;;8.70;;
7154;SDS011;3619;53.784;10.440;2023-04-03T02:23:28;7.67;;;7.37;;
7154;SDS011;3619;53.784;10.440;2023-04-03T02:26:02;8.17;;;7.87;;
7154;SDS011;3619;53.784;10.440;2023-04-03T02:28:31;8.00;;;7.70;;
7154;SDS011;3619;53.784;10.440;2023-04-03T02:30:58;8.37;;;8.07;;
7154;SDS011;3619;53.784;10.440;2023-04-03T02:33:24;7.03;;;6.73;;
7154;SDS011;3619;53.784;10.440;2023-04-03T02:35:52;7.60;;;7.30;;
7154;SDS011;3619;53.784;10.440;2023-04-03T02:38:19;8.37;;;8.07;;
7154;SDS011;3619;53.784;10.440;2023-04-03T02:40:48;8.30;;;8.00;;
7154;SDS011;3619;53.784;10.440;2023-04-03T02:43:15;6.67;;;6.47;;
7154;SDS011;3619;53.784;10.440;2023-04-03T02:45:44;9.67;;;9.30;;
7154;SDS011;3619;53.784;10.440;2023-04-03T02:48:11;8.67;;;8.37;;
7154;SDS011;3619;53.784;10.440;2023-04-03T02:50:39;6.77;;;6.57;;
7154;SDS011;3619;53.784;10.440;2023-04-03T02:53:07;6.13;;;5.93;;
7154;SDS011;3619;53.784;10.440;2023-04-03T02:55:34;7.67;;;7.37;;
7154;SDS011;3619;53.784;10.440;2023-04-03T02:58:02;6.70;;;6.50;;
7154;SDS011;3619;53.784;10.440;2023-04-03T03:00:29;5.53;;;5.33;;
7154;SDS011;3619;53.784;10.440;2023-04-03T03:02:56;7.47;;;7.17;;
7154;SDS011;3619;53.784;10.440;2023-04-03T03:05:25;8.10;;;7.80;;
7154;SDS011;3619;53.784;10.440;2023-04-03T03:07:52;8.40;;;8.10;;
7154;SDS011;3619;53.784;10.440;2023-04-03T03:10:19;9.67;;;9.27;;
7154;SDS011;3619;53.784;10.440;2023-04-03T03:12:46;8.83;;;8.53;;
7154;SDS011;3619;53.784;10.440;2023-04-03T03:15:14;8.83;;;8.53;;
7154;SDS011;3619;53.784;10.440;2023-04-03T03:17:42;7.17;;;6.87;;
7154;SDS011;3619;53.784;10.440;2023-04-03T03:20:09;8.17;;;7.87;;
7154;SDS011;3619;53.784;10.440;2023-04-03T03:22:39;8.67;;;8.37;;
7154;SDS011;3619;53.784;10.440;2023-04-03T03:25:06;9.57;;;9.20;;
7154;SDS011;3619;53.784;10.440;2023-04-03T03:27:33;9.20;;;8.90;;
7154;SDS011;3619;53.784;10.440;2023-04-03T03:30:00;8.97;;;8.67;;
7154;SDS011;3619;53.784;10.440;2023-04-03T03:32:28;7.40;;;7.10;;
7154;SDS011;3619;53.784;10.440;2023-04-03T03:34:55;6.40;;;6.20;;
7154;SDS011;3619;53.784;10.440;2023-04-03T03:37:21;7.93;;;7.63;;
7154;SDS011;3619;53.784;10.440;2023-04-03T03:39:50;8.73;;;8.43;;
7154;SDS011;3619;53.784;10.440;2023-04-03T03:42:17;8.93;;;8.63;;
7154;SDS011;3619;53.784;10.440;2023-04-03T03:44:44;7.70;;;7.40;;
7154;SDS011;3619;53.784;10.440;2023-04-03T03:47:11;9.87;;;9.47;;
7154;SDS011;3619;53.784;10.440;2023-04-03T03:49:39;8.70;;;8.40;;
7154;SDS011;3619;53.784;10.440;2023-04-03T03:52:05;7.53;;;7.23;;
7154;SDS011;3619;53.784;10.440;2023-04-03T03:54:35;9.77;;;9.37;;
7154;SDS011;3619;53.784;10.440;2023-04-03T03:57:02;9.40;;;9.10;;
7154;SDS011;3619;53.784;10.440;2023-04-03T03:59:29;8.20;;;7.90;;
7154;SDS011;3619;53.784;10.440;2023-04-03T04:01:56;9.30;;;9.00;;
7154;SDS011;3619;53.784;10.440;2023-04-03T04:04:23;11.40;;;11.00;;
7154;SDS011;3619;53.784;10.440;2023-04-03T04:06:53;10.67;;;10.27;;
7154;SDS011;3619;53.784;10.440;2023-04-03T04:09:21;9.90;;;9.50;;
7154;SDS011;3619;53.784;10.440;2023-04-03T04:11:47;10.13;;;9.73;;
7154;SDS011;3619;53.784;10.440;2023-04-03T04:14:14;9.17;;;8.87;;
7154;SDS011;3619;53.784;10.440;2023-04-03T04:16:41;8.83;;;8.53;;
7154;SDS011;3619;53.784;10.440;2023-04-03T04:19:08;9.13;;;8.83;;
7154;SDS011;3619;53.784;10.440;2023-04-03T04:21:35;7.77;;;7.47;;
7154;SDS011;3619;53.784;10.440;2023-04-03T04:24:03;8.73;;;8.43;;
7154;SDS011;3619;53.784;10.440;2023-04-03T04:26:30;7.90;;;7.60;;
7154;SDS011;3619;53.784;10.440;2023-04-03T04:28:57;9.47;;;9.13;;
7154;SDS011;3619;53.784;10.440;2023-04-03T04:31:25;7.37;;;7.07;;
7154;SDS011;3619;53.784;10.440;2023-04-03T04:33:52;7.40;;;7.10;;
7154;SDS011;3619;53.784;10.440;2023-04-03T04:36:22;8.57;;;8.27;;
7154;SDS011;3619;53.784;10.440;2023-04-03T04:38:49;9.57;;;9.20;;
7154;SDS011;3619;53.784;10.440;2023-04-03T04:41:19;8.67;;;8.37;;
7154;SDS011;3619;53.784;10.440;2023-04-03T04:43:48;9.17;;;8.87;;
7154;SDS011;3619;53.784;10.440;2023-04-03T04:46:15;10.97;;;10.57;;
7154;SDS011;3619;53.784;10.440;2023-04-03T04:48:42;10.50;;;10.10;;
7154;SDS011;3619;53.784;10.440;2023-04-03T04:51:13;10.77;;;10.37;;
7154;SDS011;3619;53.784;10.440;2023-04-03T04:53:40;10.80;;;10.40;;
7154;SDS011;3619;53.784;10.440;2023-04-03T04:56:07;11.13;;;10.73;;
7154;SDS011;3619;53.784;10.440;2023-04-03T04:58:38;9.77;;;9.37;;
7154;SDS011;3619;53.784;10.440;2023-04-03T05:01:06;9.87;;;9.47;;
7154;SDS011;3619;53.784;10.440;2023-04-03T05:03:34;9.97;;;9.57;;
7154;SDS011;3619;53.784;10.440;2023-04-03T05:06:02;10.10;;;9.70;;
7154;SDS011;3619;53.784;10.440;2023-04-03T05:08:30;8.67;;;8.37;;
7154;SDS011;3619;53.784;10.440;2023-04-03T05:10:57;11.00;;;10.60;;
7154;SDS011;3619;53.784;10.440;2023-04-03T05:13:24;9.97;;;9.57;;
7154;SDS011;3619;53.784;10.440;2023-04-03T05:15:53;9.80;;;9.40;;
7154;SDS011;3619;53.784;10.440;2023-04-03T05:18:19;11.10;;;10.70;;
7154;SDS011;3619;53.784;10.440;2023-04-03T05:20:49;11.60;;;11.20;;
7154;SDS011;3619;53.784;10.440;2023-04-03T05:23:16;8.73;;;8.43;;
7154;SDS011;3619;53.784;10.440;2023-04-03T05:25:43;11.07;;;10.67;;
7154;SDS011;3619;53.784;10.440;2023-04-03T05:28:11;9.20;;;8.90;;
7154;SDS011;3619;53.784;10.440;2023-04-03T05:30:38;10.83;;;10.43;;
7154;SDS011;3619;53.784;10.440;2023-04-03T05:33:09;10.80;;;10.40;;
7154;SDS011;3619;53.784;10.440;2023-04-03T05:35:36;10.10;;;9.70;;
7154;SDS011;3619;53.784;10.440;2023-04-03T05:38:06;9.33;;;9.03;;
7154;SDS011;3619;53.784;10.440;2023-04-03T05:40:33;9.40;;;9.10;;
7154;SDS011;3619;53.784;10.440;2023-04-03T05:43:03;9.03;;;8.73;;
7154;SDS011;3619;53.784;10.440;2023-04-03T05:45:30;7.73;;;7.43;;
7154;SDS011;3619;53.784;10.440;2023-04-03T05:47:57;6.43;;;6.23;;
7154;SDS011;3619;53.784;10.440;2023-04-03T05:50:27;7.33;;;7.03;;
7154;SDS011;3619;53.784;10.440;2023-04-03T05:52:56;6.07;;;5.87;;
7154;SDS011;3619;53.784;10.440;2023-04-03T05:55:26;6.43;;;6.23;;
7154;SDS011;3619;53.784;10.440;2023-04-03T05:57:55;6.77;;;6.57;;
7154;SDS011;3619;53.784;10.440;2023-04-03T06:00:22;7.23;;;6.93;;
7154;SDS011;3619;53.784;10.440;2023-04-03T06:02:49;5.57;;;5.37;;
7154;SDS011;3619;53.784;10.440;2023-04-03T06:05:16;6.07;;;5.87;;
7154;SDS011;3619;53.784;10.440;2023-04-03T06:07:45;6.90;;;6.67;;
7154;SDS011;3619;53.784;10.440;2023-04-03T06:10:12;6.73;;;6.53;;
7154;SDS011;3619;53.784;10.440;2023-04-03T06:12:39;6.23;;;6.03;;
7154;SDS011;3619;53.784;10.440;2023-04-03T06:15:07;6.53;;;6.33;;
7154;SDS011;3619;53.784;10.440;2023-04-03T06:17:35;7.67;;;7.37;;
7154;SDS011;3619;53.784;10.440;2023-04-03T06:20:05;7.80;;;7.50;;
7154;SDS011;3619;53.784;10.440;2023-04-03T06:22:35;7.70;;;7.40;;
7154;SDS011;3619;53.784;10.440;2023-04-03T06:25:06;9.03;;;8.73;;
7154;SDS011;3619;53.784;10.440;2023-04-03T06:27:34;6.60;;;6.40;;
7154;SDS011;3619;53.784;10.440;2023-04-03T06:30:01;7.23;;;6.93;;
7154;SDS011;3619;53.784;10.440;2023-04-03T06:32:27;6.43;;;6.23;;
7154;SDS011;3619;53.784;10.440;2023-04-03T06:34:54;7.63;;;7.33;;
7154;SDS011;3619;53.784;10.440;2023-04-03T06:37:25;7.47;;;7.17;;
7154;SDS011;3619;53.784;10.440;2023-04-03T06:39:53;6.90;;;6.67;;
7154;SDS011;3619;53.784;10.440;2023-04-03T06:42:23;5.47;;;5.27;;
7154;SDS011;3619;53.784;10.440;2023-04-03T06:44:50;7.83;;;7.53;;
7154;SDS011;3619;53.784;10.440;2023-04-03T06:47:19;5.87;;;5.67;;
7154;SDS011;3619;53.784;10.440;2023-04-03T06:49:45;7.17;;;6.87;;
7154;SDS011;3619;53.784;10.440;2023-04-03T06:52:12;6.43;;;6.23;;
7154;SDS011;3619;53.784;10.440;2023-04-03T06:54:39;5.70;;;5.50;;
7154;SDS011;3619;53.784;10.440;2023-04-03T06:57:08;4.93;;;4.73;;
7154;SDS011;3619;53.784;10.440;2023-04-03T06:59:36;4.03;;;3.93;;
7154;SDS011;3619;53.784;10.440;2023-04-03T07:02:05;4.93;;;4.73;;
7154;SDS011;3619;53.784;10.440;2023-04-03T07:04:32;4.70;;;4.50;;
7154;SDS011;3619;53.784;10.440;2023-04-03T07:07:00;3.73;;;3.63;;
7154;SDS011;3619;53.784;10.440;2023-04-03T07:09:29;3.20;;;3.10;;
7154;SDS011;3619;53.784;10.440;2023-04-03T07:11:56;3.20;;;3.10;;
7154;SDS011;3619;53.784;10.440;2023-04-03T07:14:23;3.10;;;3.00;;
7154;SDS011;3619;53.784;10.440;2023-04-03T07:16:51;2.63;;;2.53;;
7154;SDS011;3619;53.784;10.440;2023-04-03T07:19:20;2.63;;;2.53;;
7154;SDS011;3619;53.784;10.440;2023-04-03T07:21:47;2.80;;;2.70;;
7154;SDS011;3619;53.784;10.440;2023-04-03T07:24:16;2.20;;;2.10;;
7154;SDS011;3619;53.784;10.440;2023-04-03T07:26:43;2.10;;;2.00;;
7154;SDS011;3619;53.784;10.440;2023-04-03T07:29:13;1.93;;;1.90;;
7154;SDS011;3619;53.784;10.440;2023-04-03T07:31:40;2.03;;;1.93;;
7154;SDS011;3619;53.784;10.440;2023-04-03T07:34:08;2.03;;;1.93;;
7154;SDS011;3619;53.784;10.440;2023-04-03T07:36:35;1.60;;;1.60;;
7154;SDS011;3619;53.784;10.440;2023-04-03T07:39:02;2.07;;;1.97;;
7154;SDS011;3619;53.784;10.440;2023-04-03T07:41:32;2.17;;;2.07;;
7154;SDS011;3619;53.784;10.440;2023-04-03T07:43:59;1.80;;;1.80;;
7154;SDS011;3619;53.784;10.440;2023-04-03T07:46:26;2.17;;;2.07;;
7154;SDS011;3619;53.784;10.440;2023-04-03T07:48:54;2.17;;;2.07;;
7154;SDS011;3619;53.784;10.440;2023-04-03T07:51:24;2.63;;;2.53;;
7154;SDS011;3619;53.784;10.440;2023-04-03T07:53:57;2.70;;;2.60;;
7154;SDS011;3619;53.784;10.440;2023-04-03T07:58:52;2.23;;;2.13;;
7154;SDS011;3619;53.784;10.440;2023-04-03T07:59:52;1.50;;;1.50;;
7154;SDS011;3619;53.784;10.440;2023-04-03T08:02:19;1.63;;;1.63;;
7154;SDS011;3619;53.784;10.440;2023-04-03T08:04:46;2.27;;;2.17;;
7154;SDS011;3619;53.784;10.440;2023-04-03T08:07:16;1.70;;;1.70;;
7154;SDS011;3619;53.784;10.440;2023-04-03T08:09:52;1.80;;;1.80;;
7154;SDS011;3619;53.784;10.440;2023-04-03T08:12:27;2.00;;;1.90;;
7154;SDS011;3619;53.784;10.440;2023-04-03T08:14:56;2.00;;;1.90;;
7154;SDS011;3619;53.784;10.440;2023-04-03T08:17:31;1.60;;;1.60;;
7154;SDS011;3619;53.784;10.440;2023-04-03T08:19:59;1.57;;;1.57;;
7154;SDS011;3619;53.784;10.440;2023-04-03T08:22:30;1.97;;;1.87;;
7154;SDS011;3619;53.784;10.440;2023-04-03T08:25:01;1.80;;;1.80;;
7154;SDS011;3619;53.784;10.440;2023-04-03T08:27:28;2.37;;;2.27;;
7154;SDS011;3619;53.784;10.440;2023-04-03T08:29:55;1.60;;;1.60;;
7154;SDS011;3619;53.784;10.440;2023-04-03T08:32:24;1.70;;;1.70;;
7154;SDS011;3619;53.784;10.440;2023-04-03T08:34:52;1.87;;;1.83;;
7154;SDS011;3619;53.784;10.440;2023-04-03T08:37:20;2.20;;;2.10;;
7154;SDS011;3619;53.784;10.440;2023-04-03T08:39:49;1.70;;;1.70;;
7154;SDS011;3619;53.784;10.440;2023-04-03T08:42:24;2.20;;;2.10;;
7154;SDS011;3619;53.784;10.440;2023-04-03T08:45:05;1.87;;;1.83;;
7154;SDS011;3619;53.784;10.440;2023-04-03T08:47:43;2.20;;;2.10;;
7154;SDS011;3619;53.784;10.440;2023-04-03T08:50:19;1.87;;;1.83;;
7154;SDS011;3619;53.784;10.440;2023-04-03T08:52:53;1.73;;;1.73;;
7154;SDS011;3619;53.784;10.440;2023-04-03T08:55:25;1.87;;;1.87;;
7154;SDS011;3619;53.784;10.440;2023-04-03T08:57:57;1.57;;;1.57;;
7154;SDS011;3619;53.784;10.440;2023-04-03T09:00:28;1.50;;;1.50;;
7154;SDS011;3619;53.784;10.440;2023-04-03T09:03:00;2.00;;;1.90;;
7154;SDS011;3619;53.784;10.440;2023-04-03T09:05:33;1.77;;;1.73;;
7154;SDS011;3619;53.784;10.440;2023-04-03T09:08:18;1.80;;;1.80;;
7154;SDS011;3619;53.784;10.440;2023-04-03T09:10:54;2.23;;;2.13;;
7154;SDS011;3619;53.784;10.440;2023-04-03T09:13:30;1.83;;;1.83;;
7154;SDS011;3619;53.784;10.440;2023-04-03T09:16:03;2.03;;;1.93;;
7154;SDS011;3619;53.784;10.440;2023-04-03T09:18:45;1.63;;;1.63;;
7154;SDS011;3619;53.784;10.440;2023-04-03T09:21:21;1.50;;;1.50;;
7154;SDS011;3619;53.784;10.440;2023-04-03T09:23:59;1.50;;;1.50;;
7154;SDS011;3619;53.784;10.440;2023-04-03T09:26:33;1.80;;;1.80;;
7154;SDS011;3619;53.784;10.440;2023-04-03T09:29:04;1.60;;;1.60;;
7154;SDS011;3619;53.784;10.440;2023-04-03T09:31:35;1.80;;;1.80;;
7154;SDS011;3619;53.784;10.440;2023-04-03T09:34:06;1.77;;;1.77;;
7154;SDS011;3619;53.784;10.440;2023-04-03T09:36:40;1.70;;;1.70;;
7154;SDS011;3619;53.784;10.440;2023-04-03T09:39:11;1.60;;;1.60;;
7154;SDS011;3619;53.784;10.440;2023-04-03T09:41:54;1.70;;;1.70;;
7154;SDS011;3619;53.784;10.440;2023-04-03T09:44:28;2.10;;;2.00;;
7154;SDS011;3619;53.784;10.440;2023-04-03T09:46:57;2.10;;;2.00;;
7154;SDS011;3619;53.784;10.440;2023-04-03T09:49:26;2.37;;;2.27;;
7154;SDS011;3619;53.784;10.440;2023-04-03T09:51:53;1.70;;;1.70;;
7154;SDS011;3619;53.784;10.440;2023-04-03T09:54:24;1.70;;;1.70;;
7154;SDS011;3619;53.784;10.440;2023-04-03T09:56:57;1.70;;;1.70;;
7154;SDS011;3619;53.784;10.440;2023-04-03T09:59:29;1.60;;;1.60;;
7154;SDS011;3619;53.784;10.440;2023-04-03T10:01:57;1.50;;;1.50;;
7154;SDS011;3619;53.784;10.440;2023-04-03T10:04:25;1.67;;;1.67;;
7154;SDS011;3619;53.784;10.440;2023-04-03T10:07:30;2.00;;;1.90;;
7154;SDS011;3619;53.784;10.440;2023-04-03T10:09:57;1.73;;;1.73;;
7154;SDS011;3619;53.784;10.440;2023-04-03T10:12:27;2.70;;;2.50;;
7154;SDS011;3619;53.784;10.440;2023-04-03T10:14:55;2.00;;;1.90;;
7154;SDS011;3619;53.784;10.440;2023-04-03T10:17:26;1.37;;;1.37;;
7154;SDS011;3619;53.784;10.440;2023-04-03T10:20:07;1.57;;;1.57;;
7154;SDS011;3619;53.784;10.440;2023-04-03T10:22:49;1.40;;;1.40;;
7154;SDS011;3619;53.784;10.440;2023-04-03T10:25:28;1.37;;;1.37;;
7154;SDS011;3619;53.784;10.440;2023-04-03T10:28:03;1.20;;;1.20;;
7154;SDS011;3619;53.784;10.440;2023-04-03T10:30:37;1.40;;;1.40;;
7154;SDS011;3619;53.784;10.440;2023-04-03T10:33:18;2.00;;;1.90;;
7154;SDS011;3619;53.784;10.440;2023-04-03T10:36:07;1.50;;;1.50;;
7154;SDS011;3619;53.784;10.440;2023-04-03T10:38:51;1.63;;;1.63;;
7154;SDS011;3619;53.784;10.440;2023-04-03T10:41:27;2.07;;;1.97;;
7154;SDS011;3619;53.784;10.440;2023-04-03T10:44:08;1.50;;;1.50;;
7154;SDS011;3619;53.784;10.440;2023-04-03T10:46:43;1.53;;;1.53;;
7154;SDS011;3619;53.784;10.440;2023-04-03T10:49:19;1.47;;;1.47;;
7154;SDS011;3619;53.784;10.440;2023-04-03T10:52:00;1.33;;;1.33;;
7154;SDS011;3619;53.784;10.440;2023-04-03T10:54:32;1.43;;;1.43;;
7154;SDS011;3619;53.784;10.440;2023-04-03T10:57:03;1.40;;;1.40;;
7154;SDS011;3619;53.784;10.440;2023-04-03T10:59:35;1.40;;;1.40;;
7154;SDS011;3619;53.784;10.440;2023-04-03T11:02:06;1.50;;;1.50;;
7154;SDS011;3619;53.784;10.440;2023-04-03T11:04:40;3.23;;;3.10;;
7154;SDS011;3619;53.784;10.440;2023-04-03T11:07:11;1.10;;;1.10;;
7154;SDS011;3619;53.784;10.440;2023-04-03T11:09:44;1.30;;;1.30;;
7154;SDS011;3619;53.784;10.440;2023-04-03T11:12:14;1.60;;;1.60;;
7154;SDS011;3619;53.784;10.440;2023-04-03T11:14:46;1.40;;;1.40;;
7154;SDS011;3619;53.784;10.440;2023-04-03T11:17:21;1.37;;;1.37;;
7154;SDS011;3619;53.784;10.440;2023-04-03T11:19:57;1.30;;;1.30;;
7154;SDS011;3619;53.784;10.440;2023-04-03T11:22:29;1.40;;;1.40;;
7154;SDS011;3619;53.784;10.440;2023-04-03T11:25:02;1.30;;;1.30;;
7154;SDS011;3619;53.784;10.440;2023-04-03T11:27:33;1.20;;;1.20;;
7154;SDS011;3619;53.784;10.440;2023-04-03T11:30:18;1.37;;;1.37;;
7154;SDS011;3619;53.784;10.440;2023-04-03T11:32:57;1.30;;;1.30;;
7154;SDS011;3619;53.784;10.440;2023-04-03T11:35:55;1.20;;;1.20;;
7154;SDS011;3619;53.784;10.440;2023-04-03T11:38:36;1.23;;;1.23;;
7154;SDS011;3619;53.784;10.440;2023-04-03T11:41:11;1.30;;;1.30;;
7154;SDS011;3619;53.784;10.440;2023-04-03T11:44:24;1.30;;;1.30;;
7154;SDS011;3619;53.784;10.440;2023-04-03T11:47:04;1.70;;;1.70;;
7154;SDS011;3619;53.784;10.440;2023-04-03T11:49:53;1.43;;;1.43;;
7154;SDS011;3619;53.784;10.440;2023-04-03T11:58:19;1.23;;;1.23;;
7154;SDS011;3619;53.784;10.440;2023-04-03T12:00:52;1.30;;;1.30;;
7154;SDS011;3619;53.784;10.440;2023-04-03T12:12:43;1.40;;;1.40;;
7154;SDS011;3619;53.784;10.440;2023-04-03T12:18:37;1.47;;;1.47;;
7154;SDS011;3619;53.784;10.440;2023-04-03T12:21:08;1.67;;;1.67;;
7154;SDS011;3619;53.784;10.440;2023-04-03T12:23:35;1.67;;;1.67;;
7154;SDS011;3619;53.784;10.440;2023-04-03T12:26:22;1.40;;;1.40;;
7154;SDS011;3619;53.784;10.440;2023-04-03T12:28:54;1.67;;;1.67;;
7154;SDS011;3619;53.784;10.440;2023-04-03T12:31:23;1.30;;;1.30;;
7154;SDS011;3619;53.784;10.440;2023-04-03T12:34:24;1.70;;;1.70;;
7154;SDS011;3619;53.784;10.440;2023-04-03T12:37:08;1.43;;;1.43;;
7154;SDS011;3619;53.784;10.440;2023-04-03T12:39:51;1.60;;;1.60;;
7154;SDS011;3619;53.784;10.440;2023-04-03T12:42:31;1.70;;;1.70;;
7154;SDS011;3619;53.784;10.440;2023-04-03T12:45:10;1.90;;;1.83;;
7154;SDS011;3619;53.784;10.440;2023-04-03T12:47:43;1.90;;;1.80;;
7154;SDS011;3619;53.784;10.440;2023-04-03T12:50:18;1.50;;;1.50;;
7154;SDS011;3619;53.784;10.440;2023-04-03T12:52:59;1.40;;;1.40;;
7154;SDS011;3619;53.784;10.440;2023-04-03T12:55:28;1.53;;;1.53;;
7154;SDS011;3619;53.784;10.440;2023-04-03T13:00:46;1.77;;;1.77;;
7154;SDS011;3619;53.784;10.440;2023-04-03T13:03:25;1.43;;;1.43;;
7154;SDS011;3619;53.784;10.440;2023-04-03T13:05:54;1.87;;;1.87;;
7154;SDS011;3619;53.784;10.440;2023-04-03T13:08:23;1.57;;;1.57;;
7154;SDS011;3619;53.784;10.440;2023-04-03T13:10:51;1.97;;;1.87;;
7154;SDS011;3619;53.784;10.440;2023-04-03T13:13:23;1.40;;;1.40;;
7154;SDS011;3619;53.784;10.440;2023-04-03T13:15:53;1.60;;;1.60;;
7154;SDS011;3619;53.784;10.440;2023-04-03T13:18:24;1.30;;;1.30;;
7154;SDS011;3619;53.784;10.440;2023-04-03T13:20:57;1.67;;;1.67;;
7154;SDS011;3619;53.784;10.440;2023-04-03T13:23:38;1.50;;;1.50;;
7154;SDS011;3619;53.784;10.440;2023-04-03T13:26:12;3.13;;;2.70;;
7154;SDS011;3619;53.784;10.440;2023-04-03T13:31:52;1.50;;;1.50;;
7154;SDS011;3619;53.784;10.440;2023-04-03T13:34:21;1.40;;;1.40;;
7154;SDS011;3619;53.784;10.440;2023-04-03T13:37:00;1.30;;;1.30;;
7154;SDS011;3619;53.784;10.440;2023-04-03T13:39:30;1.30;;;1.30;;
7154;SDS011;3619;53.784;10.440;2023-04-03T13:41:59;1.70;;;1.70;;
7154;SDS011;3619;53.784;10.440;2023-04-03T13:44:37;1.63;;;1.63;;
7154;SDS011;3619;53.784;10.440;2023-04-03T13:47:15;1.67;;;1.67;;
7154;SDS011;3619;53.784;10.440;2023-04-03T13:50:00;1.73;;;1.73;;
7154;SDS011;3619;53.784;10.440;2023-04-03T13:52:53;1.40;;;1.40;;
7154;SDS011;3619;53.784;10.440;2023-04-03T13:55:35;1.50;;;1.50;;
7154;SDS011;3619;53.784;10.440;2023-04-03T14:10:06;1.60;;;1.60;;
7154;SDS011;3619;53.784;10.440;2023-04-03T14:12:02;1.23;;;1.23;;
7154;SDS011;3619;53.784;10.440;2023-04-03T14:18:10;1.30;;;1.30;;
7154;SDS011;3619;53.784;10.440;2023-04-03T14:20:51;1.50;;;1.50;;
7154;SDS011;3619;53.784;10.440;2023-04-03T14:23:18;1.50;;;1.50;;
7154;SDS011;3619;53.784;10.440;2023-04-03T14:25:45;1.60;;;1.60;;
7154;SDS011;3619;53.784;10.440;2023-04-03T14:28:14;1.40;;;1.40;;
7154;SDS011;3619;53.784;10.440;2023-04-03T14:37:41;1.20;;;1.20;;
7154;SDS011;3619;53.784;10.440;2023-04-03T14:41:12;1.33;;;1.33;;
7154;SDS011;3619;53.784;10.440;2023-04-03T14:43:41;1.30;;;1.30;;
7154;SDS011;3619;53.784;10.440;2023-04-03T14:49:47;1.60;;;1.60;;
7154;SDS011;3619;53.784;10.440;2023-04-03T14:52:16;1.30;;;1.30;;
7154;SDS011;3619;53.784;10.440;2023-04-03T14:54:54;1.47;;;1.47;;
7154;SDS011;3619;53.784;10.440;2023-04-03T14:57:21;1.27;;;1.27;;
7154;SDS011;3619;53.784;10.440;2023-04-03T14:59:50;1.57;;;1.57;;
7154;SDS011;3619;53.784;10.440;2023-04-03T15:02:25;1.40;;;1.40;;
7154;SDS011;3619;53.784;10.440;2023-04-03T15:04:53;1.40;;;1.40;;
7154;SDS011;3619;53.784;10.440;2023-04-03T15:07:20;1.50;;;1.50;;
7154;SDS011;3619;53.784;10.440;2023-04-03T15:09:50;1.53;;;1.53;;
7154;SDS011;3619;53.784;10.440;2023-04-03T15:12:17;1.50;;;1.50;;
7154;SDS011;3619;53.784;10.440;2023-04-03T15:14:44;1.40;;;1.40;;
7154;SDS011;3619;53.784;10.440;2023-04-03T15:17:13;1.40;;;1.40;;
7154;SDS011;3619;53.784;10.440;2023-04-03T15:19:42;1.20;;;1.20;;
7154;SDS011;3619;53.784;10.440;2023-04-03T15:22:14;1.43;;;1.43;;
7154;SDS011;3619;53.784;10.440;2023-04-03T15:24:42;1.10;;;1.10;;
7154;SDS011;3619;53.784;10.440;2023-04-03T15:27:11;1.30;;;1.30;;
7154;SDS011;3619;53.784;10.440;2023-04-03T15:29:41;1.20;;;1.20;;
7154;SDS011;3619;53.784;10.440;2023-04-03T15:32:12;1.20;;;1.20;;
7154;SDS011;3619;53.784;10.440;2023-04-03T15:34:38;1.40;;;1.40;;
7154;SDS011;3619;53.784;10.440;2023-04-03T15:37:05;1.30;;;1.30;;
7154;SDS011;3619;53.784;10.440;2023-04-03T15:39:32;1.37;;;1.37;;
7154;SDS011;3619;53.784;10.440;2023-04-03T15:41:59;1.50;;;1.50;;
7154;SDS011;3619;53.784;10.440;2023-04-03T15:44:32;1.50;;;1.50;;
7154;SDS011;3619;53.784;10.440;2023-04-03T15:46:59;1.40;;;1.40;;
7154;SDS011;3619;53.784;10.440;2023-04-03T15:49:26;1.30;;;1.30;;
7154;SDS011;3619;53.784;10.440;2023-04-03T15:51:54;1.17;;;1.17;;
7154;SDS011;3619;53.784;10.440;2023-04-03T15:54:20;1.30;;;1.30;;
7154;SDS011;3619;53.784;10.440;2023-04-03T15:56:48;1.40;;;1.40;;
7154;SDS011;3619;53.784;10.440;2023-04-03T15:59:15;1.30;;;1.30;;
7154;SDS011;3619;53.784;10.440;2023-04-03T16:01:43;1.53;;;1.53;;
7154;SDS011;3619;53.784;10.440;2023-04-03T16:04:10;1.13;;;1.13;;
7154;SDS011;3619;53.784;10.440;2023-04-03T16:06:37;1.30;;;1.30;;
7154;SDS011;3619;53.784;10.440;2023-04-03T16:09:07;1.37;;;1.37;;
7154;SDS011;3619;53.784;10.440;2023-04-03T16:11:34;1.40;;;1.40;;
7154;SDS011;3619;53.784;10.440;2023-04-03T16:14:04;1.10;;;1.10;;
7154;SDS011;3619;53.784;10.440;2023-04-03T16:16:31;1.33;;;1.33;;